Terminal Aerodrome Forecast
Issued by NWS

Home | Current Version | Previous Version | Graphics & Text | Print | Product List | Glossary On
Versions: 1 2 3 4 5 6 7 8 9 10 11 12 13 14 15 16 17
000
FTUS43 KPAH 271129
TAFCGI
TAF
KCGI 271129Z 2712/2812 14006KT 6SM -SHRA BKN050 OVC100
      TEMPO 2712/2714 2SM TSRA BKN035CB
     FM271400 16007KT P6SM SCT035 BKN100
     FM271800 21008KT P6SM VCTS BKN040CB
     FM280000 32004KT P6SM BKN035
     FM280600 34006KT 4SM BR OVC015=

USA.gov is the U.S. government's official web portal to all federal, state and local government web resources and services.